This is the latest recevied weather packets stored in our database for station/object KA1JKB. If no packets are shown the sender has not sent any weather packets the latest 10 day(s).
| Time | Temp. | Humidity | Pressure | Rain* | Wind** | Luminosity | Snow |
|---|---|---|---|---|---|---|---|
| 1777556537 | 7.22° C | 86% | 1012.3 hPa | 0 mm | - | 553 W/m² | - |
| 1777556236 | 7.22° C | 90% | 1012.2 hPa | 0 mm | - | 523 W/m² | - |
| 1777555933 | 6.67° C | 91% | 1012.2 hPa | 0 mm | - | 507 W/m² | - |
| 1777555628 | 6.67° C | 91% | 1012 hPa | 0 mm | - | 628 W/m² | - |
| 1777555325 | 6.67° C | 92% | 1012 hPa | 0 mm | - | 629 W/m² | - |
| 1777555022 | 6.67° C | 93% | 1012.2 hPa | 0 mm | - | 548 W/m² | - |
| 1777554719 | 6.11° C | 95% | 1012.4 hPa | 0 mm | - | 285 W/m² | - |
| 1777554415 | 6.11° C | 97% | 1011.9 hPa | 0 mm | - | 544 W/m² | - |
| 1777554112 | 6.11° C | 99% | 1011.9 hPa | 0 mm | - | 476 W/m² | - |
| 1777553809 | 6.11° C | 99% | 1011.7 hPa | 0 mm | - | 516 W/m² | - |
| 1777553506 | 5.56° C | 99% | 1012 hPa | 0 mm | - | 209 W/m² | - |
| 1777553201 | 5.56° C | 99% | 1012 hPa | 0 mm | - | 393 W/m² | - |
| 1777552898 | 5.56° C | 99% | 1012 hPa | 0 mm | - | 112 W/m² | - |
| 1777552592 | 5° C | 99% | 1012.1 hPa | 0 mm | - | 125 W/m² | - |
| 1777552289 | 5° C | 99% | 1012 hPa | 0 mm | - | 124 W/m² | - |
| 1777551986 | 5° C | 99% | 1012.2 hPa | 0 mm | - | 123 W/m² | - |
| 1777551683 | 5° C | 99% | 1012.2 hPa | 0 mm | - | 102 W/m² | - |
| 1777551381 | 5° C | 99% | 1012.2 hPa | 0 mm | - | 66 W/m² | - |
| 1777551077 | 4.44° C | 99% | 1012 hPa | 0 mm | - | 72 W/m² | - |
| 1777550774 | 3.89° C | 99% | 1012 hPa | 0 mm | - | 67 W/m² | - |
| 1777550470 | 3.89° C | 99% | 1012.1 hPa | 0 mm | - | 72 W/m² | - |
| 1777550166 | 3.89° C | 99% | 1012.1 hPa | 0 mm | - | 62 W/m² | - |
| 1777549863 | 3.89° C | 99% | 1012 hPa | 0 mm | - | 53 W/m² | - |
| 1777549559 | 3.33° C | 99% | 1012 hPa | 0 mm | - | 80 W/m² | - |
| 1777549255 | 3.33° C | 99% | 1011.7 hPa | 0 mm | - | 40 W/m² | - |
* Rain latest hour (hover to see other rain measurements)
** Current wind speed in m/s (hover to see current wind gust speed)